sensor_id;sensor_type;location;lat;lon;timestamp;pressure;altitude;pressure_sealevel;temperature;humidity
7888;BME280;3989;48.810;9.208;2023-04-24T00:01:19;97762.56;;;10.72;100.00
7888;BME280;3989;48.810;9.208;2023-04-24T00:03:46;97713.50;;;10.53;100.00
7888;BME280;3989;48.810;9.208;2023-04-24T00:06:12;97754.34;;;10.87;100.00
7888;BME280;3989;48.810;9.208;2023-04-24T00:08:42;97685.38;;;10.51;100.00
7888;BME280;3989;48.810;9.208;2023-04-24T00:11:09;97729.91;;;10.77;100.00
7888;BME280;3989;48.810;9.208;2023-04-24T00:13:37;97742.44;;;10.83;100.00
7888;BME280;3989;48.810;9.208;2023-04-24T00:16:04;97746.34;;;10.87;100.00
7888;BME280;3989;48.810;9.208;2023-04-24T00:18:30;97774.47;;;11.16;100.00
7888;BME280;3989;48.810;9.208;2023-04-24T00:20:57;97772.81;;;11.21;100.00
7888;BME280;3989;48.810;9.208;2023-04-24T00:23:24;97704.06;;;10.84;100.00
7888;BME280;3989;48.810;9.208;2023-04-24T00:25:50;97769.75;;;11.31;100.00
7888;BME280;3989;48.810;9.208;2023-04-24T00:28:18;97743.84;;;11.18;100.00
7888;BME280;3989;48.810;9.208;2023-04-24T00:30:44;97781.22;;;11.44;100.00
7888;BME280;3989;48.810;9.208;2023-04-24T00:33:11;97786.56;;;11.44;100.00
7888;BME280;3989;48.810;9.208;2023-04-24T00:35:37;97788.00;;;11.47;100.00
7888;BME280;3989;48.810;9.208;2023-04-24T00:38:05;97790.03;;;11.51;100.00
7888;BME280;3989;48.810;9.208;2023-04-24T00:40:32;97779.56;;;11.56;100.00
7888;BME280;3989;48.810;9.208;2023-04-24T00:42:58;97783.03;;;11.57;100.00
7888;BME280;3989;48.810;9.208;2023-04-24T00:45:26;97784.50;;;11.59;100.00
7888;BME280;3989;48.810;9.208;2023-04-24T00:47:53;97702.59;;;11.07;100.00
7888;BME280;3989;48.810;9.208;2023-04-24T00:50:20;97776.88;;;11.63;100.00
7888;BME280;3989;48.810;9.208;2023-04-24T00:52:47;97784.47;;;11.66;100.00
7888;BME280;3989;48.810;9.208;2023-04-24T00:55:15;97777.88;;;11.69;100.00
7888;BME280;3989;48.810;9.208;2023-04-24T00:57:41;97752.22;;;11.54;100.00
7888;BME280;3989;48.810;9.208;2023-04-24T01:00:10;97756.31;;;11.70;100.00
7888;BME280;3989;48.810;9.208;2023-04-24T01:02:39;97721.81;;;11.49;100.00
7888;BME280;3989;48.810;9.208;2023-04-24T01:05:09;97754.47;;;11.71;100.00
7888;BME280;3989;48.810;9.208;2023-04-24T01:07:37;97754.47;;;11.71;100.00
7888;BME280;3989;48.810;9.208;2023-04-24T01:10:05;97739.25;;;11.58;100.00
7888;BME280;3989;48.810;9.208;2023-04-24T01:12:32;97651.88;;;11.07;100.00
7888;BME280;3989;48.810;9.208;2023-04-24T01:14:59;97727.56;;;11.52;100.00
7888;BME280;3989;48.810;9.208;2023-04-24T01:17:25;97739.84;;;11.60;100.00
7888;BME280;3989;48.810;9.208;2023-04-24T01:19:53;97749.13;;;11.71;100.00
7888;BME280;3989;48.810;9.208;2023-04-24T01:22:23;97722.63;;;11.56;100.00
7888;BME280;3989;48.810;9.208;2023-04-24T01:24:49;97726.31;;;11.55;100.00
7888;BME280;3989;48.810;9.208;2023-04-24T01:27:16;97749.50;;;11.68;100.00
7888;BME280;3989;48.810;9.208;2023-04-24T01:29:43;97706.63;;;11.43;100.00
7888;BME280;3989;48.810;9.208;2023-04-24T01:32:09;97739.47;;;11.56;100.00
7888;BME280;3989;48.810;9.208;2023-04-24T01:34:37;97741.53;;;11.48;100.00
7888;BME280;3989;48.810;9.208;2023-04-24T01:37:03;97677.94;;;11.05;100.00
7888;BME280;3989;48.810;9.208;2023-04-24T01:39:32;97594.28;;;10.47;100.00
7888;BME280;3989;48.810;9.208;2023-04-24T01:41:59;97572.78;;;10.23;100.00
7888;BME280;3989;48.810;9.208;2023-04-24T01:44:27;97725.38;;;11.17;100.00
7888;BME280;3989;48.810;9.208;2023-04-24T01:46:54;97738.50;;;11.18;100.00
7888;BME280;3989;48.810;9.208;2023-04-24T01:49:21;97721.47;;;11.19;100.00
7888;BME280;3989;48.810;9.208;2023-04-24T01:51:47;97726.00;;;11.19;100.00
7888;BME280;3989;48.810;9.208;2023-04-24T01:54:14;97724.56;;;11.16;100.00
7888;BME280;3989;48.810;9.208;2023-04-24T01:56:42;97716.56;;;11.10;100.00
7888;BME280;3989;48.810;9.208;2023-04-24T01:59:10;97735.66;;;11.13;100.00
7888;BME280;3989;48.810;9.208;2023-04-24T02:01:37;97733.00;;;11.06;100.00
7888;BME280;3989;48.810;9.208;2023-04-24T02:04:04;97731.34;;;10.99;100.00
7888;BME280;3989;48.810;9.208;2023-04-24T02:06:31;97694.41;;;10.70;100.00
7888;BME280;3989;48.810;9.208;2023-04-24T02:08:58;97703.03;;;10.65;100.00
7888;BME280;3989;48.810;9.208;2023-04-24T02:11:25;97726.84;;;10.73;100.00
7888;BME280;3989;48.810;9.208;2023-04-24T02:13:53;97736.69;;;10.86;100.00
7888;BME280;3989;48.810;9.208;2023-04-24T02:16:19;97677.78;;;10.48;100.00
7888;BME280;3989;48.810;9.208;2023-04-24T02:18:46;97720.28;;;10.76;100.00
7888;BME280;3989;48.810;9.208;2023-04-24T02:21:12;97708.56;;;10.70;100.00
7888;BME280;3989;48.810;9.208;2023-04-24T02:23:39;97709.63;;;10.69;100.00
7888;BME280;3989;48.810;9.208;2023-04-24T02:26:06;97709.00;;;10.74;100.00
7888;BME280;3989;48.810;9.208;2023-04-24T02:28:32;97729.31;;;10.94;100.00
7888;BME280;3989;48.810;9.208;2023-04-24T02:31:00;97722.72;;;10.97;100.00
7888;BME280;3989;48.810;9.208;2023-04-24T02:33:27;97730.94;;;11.02;100.00
7888;BME280;3989;48.810;9.208;2023-04-24T02:35:53;97642.94;;;10.43;100.00
7888;BME280;3989;48.810;9.208;2023-04-24T02:38:20;97742.84;;;11.13;100.00
7888;BME280;3989;48.810;9.208;2023-04-24T02:40:46;97752.09;;;11.17;100.00
7888;BME280;3989;48.810;9.208;2023-04-24T02:43:13;97756.78;;;11.21;100.00
7888;BME280;3989;48.810;9.208;2023-04-24T02:45:39;97763.38;;;11.25;100.00
7888;BME280;3989;48.810;9.208;2023-04-24T02:48:07;97726.41;;;11.09;100.00
7888;BME280;3989;48.810;9.208;2023-04-24T02:50:33;97748.19;;;11.06;100.00
7888;BME280;3989;48.810;9.208;2023-04-24T02:53:00;97755.78;;;10.89;100.00
7888;BME280;3989;48.810;9.208;2023-04-24T02:55:27;97752.09;;;10.77;100.00
7888;BME280;3989;48.810;9.208;2023-04-24T02:57:53;97758.66;;;10.68;100.00
7888;BME280;3989;48.810;9.208;2023-04-24T03:00:20;97739.38;;;10.60;100.00
7888;BME280;3989;48.810;9.208;2023-04-24T03:02:47;97730.94;;;10.49;100.00
7888;BME280;3989;48.810;9.208;2023-04-24T03:05:16;97631.13;;;9.78;100.00
7888;BME280;3989;48.810;9.208;2023-04-24T03:07:42;97599.09;;;9.52;100.00
7888;BME280;3989;48.810;9.208;2023-04-24T03:10:09;97727.22;;;10.31;100.00
7888;BME280;3989;48.810;9.208;2023-04-24T03:12:36;97727.84;;;10.26;100.00
7888;BME280;3989;48.810;9.208;2023-04-24T03:15:03;97719.41;;;10.23;100.00
7888;BME280;3989;48.810;9.208;2023-04-24T03:17:29;97716.53;;;10.18;100.00
7888;BME280;3989;48.810;9.208;2023-04-24T03:19:56;97722.25;;;10.15;100.00
7888;BME280;3989;48.810;9.208;2023-04-24T03:22:24;97724.06;;;10.08;100.00
7888;BME280;3989;48.810;9.208;2023-04-24T03:24:50;97718.28;;;9.97;100.00
7888;BME280;3989;48.810;9.208;2023-04-24T03:27:17;97643.94;;;9.48;100.00
7888;BME280;3989;48.810;9.208;2023-04-24T03:29:43;97730.97;;;9.89;100.00
7888;BME280;3989;48.810;9.208;2023-04-24T03:32:10;97701.59;;;9.69;100.00
7888;BME280;3989;48.810;9.208;2023-04-24T03:34:37;97639.00;;;9.39;100.00
7888;BME280;3989;48.810;9.208;2023-04-24T03:37:03;97700.00;;;9.81;100.00
7888;BME280;3989;48.810;9.208;2023-04-24T03:39:31;97709.84;;;9.87;100.00
7888;BME280;3989;48.810;9.208;2023-04-24T03:41:58;97714.19;;;9.95;100.00
7888;BME280;3989;48.810;9.208;2023-04-24T03:44:25;97685.84;;;9.81;100.00
7888;BME280;3989;48.810;9.208;2023-04-24T03:46:52;97629.19;;;9.46;100.00
7888;BME280;3989;48.810;9.208;2023-04-24T03:49:18;97705.13;;;9.89;100.00
7888;BME280;3989;48.810;9.208;2023-04-24T03:51:45;97688.69;;;9.73;100.00
7888;BME280;3989;48.810;9.208;2023-04-24T03:54:12;97608.41;;;9.22;100.00
7888;BME280;3989;48.810;9.208;2023-04-24T03:56:40;97655.38;;;9.36;100.00
7888;BME280;3989;48.810;9.208;2023-04-24T03:59:06;97626.16;;;9.15;100.00
7888;BME280;3989;48.810;9.208;2023-04-24T04:01:33;97721.41;;;9.60;100.00
7888;BME280;3989;48.810;9.208;2023-04-24T04:04:02;97723.03;;;9.55;100.00
7888;BME280;3989;48.810;9.208;2023-04-24T04:06:28;97721.59;;;9.52;100.00
7888;BME280;3989;48.810;9.208;2023-04-24T04:08:56;97727.00;;;9.65;100.00
7888;BME280;3989;48.810;9.208;2023-04-24T04:11:22;97700.72;;;9.56;100.00
7888;BME280;3989;48.810;9.208;2023-04-24T04:13:50;97707.53;;;9.71;100.00
7888;BME280;3989;48.810;9.208;2023-04-24T04:16:17;97733.66;;;10.02;100.00
7888;BME280;3989;48.810;9.208;2023-04-24T04:18:44;97720.97;;;9.97;100.00
7888;BME280;3989;48.810;9.208;2023-04-24T04:21:10;97606.41;;;9.30;100.00
7888;BME280;3989;48.810;9.208;2023-04-24T04:23:37;97754.06;;;10.23;100.00
7888;BME280;3989;48.810;9.208;2023-04-24T04:26:05;97768.84;;;10.25;100.00
7888;BME280;3989;48.810;9.208;2023-04-24T04:28:33;97784.88;;;10.38;100.00
7888;BME280;3989;48.810;9.208;2023-04-24T04:31:01;97747.00;;;10.09;100.00
7888;BME280;3989;48.810;9.208;2023-04-24T04:33:27;97749.06;;;10.07;100.00
7888;BME280;3989;48.810;9.208;2023-04-24T04:35:54;97805.81;;;10.41;100.00
7888;BME280;3989;48.810;9.208;2023-04-24T04:38:22;97812.56;;;10.37;100.00
7888;BME280;3989;48.810;9.208;2023-04-24T04:40:48;97796.75;;;10.29;100.00
7888;BME280;3989;48.810;9.208;2023-04-24T04:43:15;97826.09;;;10.36;100.00
7888;BME280;3989;48.810;9.208;2023-04-24T04:45:42;97783.72;;;10.07;100.00
7888;BME280;3989;48.810;9.208;2023-04-24T04:48:11;97825.63;;;10.19;100.00
7888;BME280;3989;48.810;9.208;2023-04-24T04:50:39;97824.13;;;10.10;100.00
7888;BME280;3989;48.810;9.208;2023-04-24T04:53:05;97831.47;;;9.95;100.00
7888;BME280;3989;48.810;9.208;2023-04-24T04:55:32;97806.25;;;9.63;100.00
7888;BME280;3989;48.810;9.208;2023-04-24T04:57:58;97843.00;;;9.74;100.00
7888;BME280;3989;48.810;9.208;2023-04-24T05:00:25;97846.25;;;9.70;100.00
7888;BME280;3989;48.810;9.208;2023-04-24T05:02:52;97835.56;;;9.63;100.00
7888;BME280;3989;48.810;9.208;2023-04-24T05:05:20;97833.09;;;9.62;100.00
7888;BME280;3989;48.810;9.208;2023-04-24T05:07:47;97847.72;;;9.72;100.00
7888;BME280;3989;48.810;9.208;2023-04-24T05:10:14;97862.28;;;9.76;100.00
7888;BME280;3989;48.810;9.208;2023-04-24T05:12:40;97854.06;;;9.71;100.00
7888;BME280;3989;48.810;9.208;2023-04-24T05:15:07;97841.28;;;9.60;100.00
7888;BME280;3989;48.810;9.208;2023-04-24T05:17:34;97835.06;;;9.46;100.00
7888;BME280;3989;48.810;9.208;2023-04-24T05:20:01;97854.81;;;9.59;100.00
7888;BME280;3989;48.810;9.208;2023-04-24T05:22:29;97879.53;;;9.80;100.00
7888;BME280;3989;48.810;9.208;2023-04-24T05:24:56;97823.38;;;9.47;100.00
7888;BME280;3989;48.810;9.208;2023-04-24T05:27:22;97880.97;;;9.83;100.00
7888;BME280;3989;48.810;9.208;2023-04-24T05:29:49;97774.66;;;9.19;100.00
7888;BME280;3989;48.810;9.208;2023-04-24T05:32:15;97853.47;;;9.76;100.00
7888;BME280;3989;48.810;9.208;2023-04-24T05:34:42;97879.22;;;9.96;100.00
7888;BME280;3989;48.810;9.208;2023-04-24T05:37:08;97899.59;;;10.11;100.00
7888;BME280;3989;48.810;9.208;2023-04-24T05:39:36;97908.28;;;10.19;100.00
7888;BME280;3989;48.810;9.208;2023-04-24T05:42:03;97870.00;;;9.99;100.00
7888;BME280;3989;48.810;9.208;2023-04-24T05:44:30;97862.97;;;9.85;100.00
7888;BME280;3989;48.810;9.208;2023-04-24T05:46:57;97901.38;;;9.97;100.00
7888;BME280;3989;48.810;9.208;2023-04-24T05:49:24;97882.19;;;9.80;100.00
7888;BME280;3989;48.810;9.208;2023-04-24T05:51:51;97868.22;;;9.72;100.00
7888;BME280;3989;48.810;9.208;2023-04-24T05:54:17;97936.78;;;10.19;100.00
7888;BME280;3989;48.810;9.208;2023-04-24T05:56:45;97929.25;;;10.29;100.00
7888;BME280;3989;48.810;9.208;2023-04-24T05:59:12;97945.50;;;10.40;100.00
7888;BME280;3989;48.810;9.208;2023-04-24T06:01:38;97919.63;;;10.34;100.00
7888;BME280;3989;48.810;9.208;2023-04-24T06:04:05;97926.63;;;10.35;100.00
7888;BME280;3989;48.810;9.208;2023-04-24T06:06:32;97938.19;;;10.49;100.00
7888;BME280;3989;48.810;9.208;2023-04-24T06:08:59;97934.00;;;10.33;100.00
7888;BME280;3989;48.810;9.208;2023-04-24T06:11:25;97932.31;;;10.26;100.00
7888;BME280;3989;48.810;9.208;2023-04-24T06:13:53;97932.50;;;10.18;100.00
7888;BME280;3989;48.810;9.208;2023-04-24T06:16:20;97942.16;;;10.25;100.00
7888;BME280;3989;48.810;9.208;2023-04-24T06:18:47;97930.56;;;10.12;100.00
7888;BME280;3989;48.810;9.208;2023-04-24T06:21:16;97953.47;;;10.27;100.00
7888;BME280;3989;48.810;9.208;2023-04-24T06:23:42;97900.72;;;10.23;100.00
7888;BME280;3989;48.810;9.208;2023-04-24T06:26:11;97910.91;;;10.60;100.00
7888;BME280;3989;48.810;9.208;2023-04-24T06:28:38;97896.66;;;10.94;100.00
7888;BME280;3989;48.810;9.208;2023-04-24T06:31:06;97891.38;;;11.33;100.00
7888;BME280;3989;48.810;9.208;2023-04-24T06:33:32;97932.69;;;11.83;100.00
7888;BME280;3989;48.810;9.208;2023-04-24T06:35:59;97933.28;;;12.12;100.00
7888;BME280;3989;48.810;9.208;2023-04-24T06:38:25;97934.66;;;12.40;100.00
7888;BME280;3989;48.810;9.208;2023-04-24T06:40:52;97852.81;;;12.13;100.00
7888;BME280;3989;48.810;9.208;2023-04-24T06:43:18;97930.84;;;12.61;100.00
7888;BME280;3989;48.810;9.208;2023-04-24T06:45:45;97912.72;;;12.70;100.00
7888;BME280;3989;48.810;9.208;2023-04-24T06:48:13;97931.09;;;12.97;100.00
7888;BME280;3989;48.810;9.208;2023-04-24T06:50:40;97930.25;;;13.03;100.00
7888;BME280;3989;48.810;9.208;2023-04-24T06:53:06;97933.66;;;13.24;100.00
7888;BME280;3989;48.810;9.208;2023-04-24T06:55:33;97931.19;;;13.53;100.00
7888;BME280;3989;48.810;9.208;2023-04-24T06:58:00;97918.22;;;13.75;100.00
7888;BME280;3989;48.810;9.208;2023-04-24T07:00:26;97930.13;;;14.04;100.00
7888;BME280;3989;48.810;9.208;2023-04-24T07:02:54;97926.94;;;14.13;100.00
7888;BME280;3989;48.810;9.208;2023-04-24T07:05:24;97935.03;;;14.25;100.00
7888;BME280;3989;48.810;9.208;2023-04-24T07:07:50;97887.97;;;13.86;100.00
7888;BME280;3989;48.810;9.208;2023-04-24T07:10:17;97933.78;;;14.09;100.00
7888;BME280;3989;48.810;9.208;2023-04-24T07:12:44;97899.41;;;13.57;100.00
7888;BME280;3989;48.810;9.208;2023-04-24T07:15:10;97868.97;;;13.20;100.00
7888;BME280;3989;48.810;9.208;2023-04-24T07:17:37;97930.06;;;13.36;100.00
7888;BME280;3989;48.810;9.208;2023-04-24T07:20:09;97939.63;;;13.26;100.00
7888;BME280;3989;48.810;9.208;2023-04-24T07:22:37;97923.09;;;12.91;100.00
7888;BME280;3989;48.810;9.208;2023-04-24T07:25:05;97953.31;;;13.04;100.00
7888;BME280;3989;48.810;9.208;2023-04-24T07:27:31;97950.41;;;13.06;100.00
7888;BME280;3989;48.810;9.208;2023-04-24T07:29:58;97923.19;;;12.71;100.00
7888;BME280;3989;48.810;9.208;2023-04-24T07:32:25;97955.66;;;12.88;97.35
7888;BME280;3989;48.810;9.208;2023-04-24T07:34:51;97899.59;;;12.55;96.16
7888;BME280;3989;48.810;9.208;2023-04-24T07:37:18;97957.47;;;13.00;86.83
7888;BME280;3989;48.810;9.208;2023-04-24T07:39:46;97963.59;;;13.14;86.66
7888;BME280;3989;48.810;9.208;2023-04-24T07:42:13;97921.88;;;12.87;81.96
7888;BME280;3989;48.810;9.208;2023-04-24T07:44:39;97982.13;;;13.53;76.55
7888;BME280;3989;48.810;9.208;2023-04-24T07:47:06;97972.44;;;13.77;73.59
7888;BME280;3989;48.810;9.208;2023-04-24T07:49:33;97968.06;;;14.07;68.04
7888;BME280;3989;48.810;9.208;2023-04-24T07:52:00;97893.91;;;13.70;64.59
7888;BME280;3989;48.810;9.208;2023-04-24T07:54:27;97992.16;;;14.32;59.09
7888;BME280;3989;48.810;9.208;2023-04-24T07:56:56;97971.75;;;13.88;59.42
7888;BME280;3989;48.810;9.208;2023-04-24T07:59:22;97995.53;;;13.78;58.33
7888;BME280;3989;48.810;9.208;2023-04-24T08:01:49;98006.13;;;13.73;58.88
7888;BME280;3989;48.810;9.208;2023-04-24T08:04:15;98002.91;;;13.58;58.18
7888;BME280;3989;48.810;9.208;2023-04-24T08:06:43;97994.09;;;13.44;58.63
7888;BME280;3989;48.810;9.208;2023-04-24T08:09:10;97974.31;;;13.07;58.78
7888;BME280;3989;48.810;9.208;2023-04-24T08:11:36;98006.47;;;13.07;60.80
7888;BME280;3989;48.810;9.208;2023-04-24T08:14:04;98002.44;;;12.85;61.17
7888;BME280;3989;48.810;9.208;2023-04-24T08:16:32;98002.63;;;12.90;60.79
7888;BME280;3989;48.810;9.208;2023-04-24T08:18:58;98028.13;;;12.99;61.00
7888;BME280;3989;48.810;9.208;2023-04-24T08:21:25;98015.88;;;13.23;62.54
7888;BME280;3989;48.810;9.208;2023-04-24T08:23:52;98017.59;;;13.49;59.82
7888;BME280;3989;48.810;9.208;2023-04-24T08:26:18;98016.53;;;13.56;56.66
7888;BME280;3989;48.810;9.208;2023-04-24T08:28:45;98017.38;;;13.82;57.08
7888;BME280;3989;48.810;9.208;2023-04-24T08:31:13;98018.75;;;13.91;56.37
7888;BME280;3989;48.810;9.208;2023-04-24T08:33:39;98039.91;;;14.05;55.53
7888;BME280;3989;48.810;9.208;2023-04-24T08:36:07;98035.63;;;13.98;54.35
7888;BME280;3989;48.810;9.208;2023-04-24T08:38:34;98026.25;;;13.82;54.50
7888;BME280;3989;48.810;9.208;2023-04-24T08:41:01;98024.16;;;14.09;54.00
7888;BME280;3989;48.810;9.208;2023-04-24T08:43:29;98033.06;;;14.34;53.55
7888;BME280;3989;48.810;9.208;2023-04-24T08:45:56;98010.31;;;14.12;53.56
7888;BME280;3989;48.810;9.208;2023-04-24T08:48:26;98056.75;;;14.12;54.33
7888;BME280;3989;48.810;9.208;2023-04-24T08:50:53;98061.78;;;13.71;56.76
7888;BME280;3989;48.810;9.208;2023-04-24T08:53:19;98059.00;;;13.59;55.59
7888;BME280;3989;48.810;9.208;2023-04-24T08:55:47;98060.13;;;13.70;56.28
7888;BME280;3989;48.810;9.208;2023-04-24T08:58:15;98057.41;;;13.45;55.75
7888;BME280;3989;48.810;9.208;2023-04-24T09:00:43;98059.44;;;13.56;57.40
7888;BME280;3989;48.810;9.208;2023-04-24T09:03:13;97986.06;;;13.13;60.60
7888;BME280;3989;48.810;9.208;2023-04-24T09:05:41;98067.13;;;13.78;61.63
7888;BME280;3989;48.810;9.208;2023-04-24T09:08:11;98055.78;;;13.76;64.12
7888;BME280;3989;48.810;9.208;2023-04-24T09:10:39;98078.81;;;13.83;60.59
7888;BME280;3989;48.810;9.208;2023-04-24T09:13:06;98072.59;;;13.58;59.47
7888;BME280;3989;48.810;9.208;2023-04-24T09:15:34;98081.09;;;13.48;61.81
7888;BME280;3989;48.810;9.208;2023-04-24T09:18:01;98066.25;;;13.01;64.56
7888;BME280;3989;48.810;9.208;2023-04-24T09:20:28;98094.50;;;12.84;70.75
7888;BME280;3989;48.810;9.208;2023-04-24T09:22:56;98099.69;;;11.87;93.60
7888;BME280;3989;48.810;9.208;2023-04-24T09:25:25;98107.88;;;11.19;100.00
7888;BME280;3989;48.810;9.208;2023-04-24T09:28:00;98073.63;;;10.53;100.00
7888;BME280;3989;48.810;9.208;2023-04-24T09:30:27;98086.41;;;10.30;100.00
7888;BME280;3989;48.810;9.208;2023-04-24T09:33:12;98083.56;;;10.11;100.00
7888;BME280;3989;48.810;9.208;2023-04-24T09:35:41;98109.63;;;10.36;100.00
7888;BME280;3989;48.810;9.208;2023-04-24T09:38:09;98065.31;;;10.35;100.00
7888;BME280;3989;48.810;9.208;2023-04-24T09:40:36;98091.72;;;10.92;100.00
7888;BME280;3989;48.810;9.208;2023-04-24T09:43:03;98099.91;;;11.32;100.00
7888;BME280;3989;48.810;9.208;2023-04-24T09:45:35;98046.47;;;11.32;90.95
7888;BME280;3989;48.810;9.208;2023-04-24T09:48:02;98105.06;;;12.14;85.26
7888;BME280;3989;48.810;9.208;2023-04-24T09:50:30;98110.00;;;12.43;81.43
7888;BME280;3989;48.810;9.208;2023-04-24T09:52:58;98108.31;;;12.81;79.70
7888;BME280;3989;48.810;9.208;2023-04-24T09:55:27;98111.34;;;13.18;74.02
7888;BME280;3989;48.810;9.208;2023-04-24T09:57:56;98119.94;;;13.33;70.15
7888;BME280;3989;48.810;9.208;2023-04-24T10:00:24;98119.47;;;13.42;65.81
7888;BME280;3989;48.810;9.208;2023-04-24T10:02:56;98070.56;;;12.89;63.30
7888;BME280;3989;48.810;9.208;2023-04-24T10:05:24;98136.47;;;13.03;61.87
7888;BME280;3989;48.810;9.208;2023-04-24T10:07:51;98122.91;;;12.98;63.09
7888;BME280;3989;48.810;9.208;2023-04-24T10:10:17;98090.84;;;12.59;60.56
7888;BME280;3989;48.810;9.208;2023-04-24T10:12:46;98049.72;;;12.14;60.16
7888;BME280;3989;48.810;9.208;2023-04-24T10:15:13;98125.00;;;12.63;63.42
7888;BME280;3989;48.810;9.208;2023-04-24T10:17:40;98064.09;;;12.52;59.08
7888;BME280;3989;48.810;9.208;2023-04-24T10:20:08;98129.38;;;13.42;56.19
7888;BME280;3989;48.810;9.208;2023-04-24T10:22:35;98127.94;;;13.84;51.99
7888;BME280;3989;48.810;9.208;2023-04-24T10:25:04;98092.13;;;14.34;50.22
7888;BME280;3989;48.810;9.208;2023-04-24T10:27:32;98100.81;;;14.79;49.50
7888;BME280;3989;48.810;9.208;2023-04-24T10:30:01;98105.38;;;15.15;47.72
7888;BME280;3989;48.810;9.208;2023-04-24T10:32:28;98109.16;;;15.25;47.26
7888;BME280;3989;48.810;9.208;2023-04-24T10:34:57;98105.16;;;14.55;46.85
7888;BME280;3989;48.810;9.208;2023-04-24T10:37:24;97945.69;;;13.08;47.41
7888;BME280;3989;48.810;9.208;2023-04-24T10:39:52;98098.50;;;13.71;49.04
7888;BME280;3989;48.810;9.208;2023-04-24T10:42:20;98140.38;;;13.72;49.71
7888;BME280;3989;48.810;9.208;2023-04-24T10:44:47;98099.09;;;13.35;49.65
7888;BME280;3989;48.810;9.208;2023-04-24T10:47:15;98033.28;;;12.94;49.96
7888;BME280;3989;48.810;9.208;2023-04-24T10:49:42;98146.78;;;13.71;49.82
7888;BME280;3989;48.810;9.208;2023-04-24T10:52:09;98143.03;;;13.78;49.79
7888;BME280;3989;48.810;9.208;2023-04-24T10:54:41;98145.72;;;13.78;49.72
7888;BME280;3989;48.810;9.208;2023-04-24T10:57:28;98120.31;;;13.81;50.17
7888;BME280;3989;48.810;9.208;2023-04-24T11:00:26;98152.31;;;14.13;49.44
7888;BME280;3989;48.810;9.208;2023-04-24T11:02:54;98075.47;;;13.63;49.33
7888;BME280;3989;48.810;9.208;2023-04-24T11:05:22;98111.88;;;13.77;49.74
7888;BME280;3989;48.810;9.208;2023-04-24T11:08:11;98156.13;;;13.93;49.93
7888;BME280;3989;48.810;9.208;2023-04-24T11:10:39;98150.13;;;13.59;50.66
7888;BME280;3989;48.810;9.208;2023-04-24T11:13:06;98158.16;;;13.66;51.32
7888;BME280;3989;48.810;9.208;2023-04-24T11:15:33;98096.91;;;13.12;51.87
7888;BME280;3989;48.810;9.208;2023-04-24T11:18:01;98134.88;;;13.60;52.08
7888;BME280;3989;48.810;9.208;2023-04-24T11:20:28;98176.38;;;13.95;50.69
7888;BME280;3989;48.810;9.208;2023-04-24T11:22:55;98172.44;;;13.98;50.55
7888;BME280;3989;48.810;9.208;2023-04-24T11:25:30;98181.38;;;13.85;49.98
7888;BME280;3989;48.810;9.208;2023-04-24T11:28:03;98186.72;;;13.85;49.56
7888;BME280;3989;48.810;9.208;2023-04-24T11:30:31;98191.81;;;14.00;49.54
7888;BME280;3989;48.810;9.208;2023-04-24T11:33:05;98172.09;;;14.19;49.55
7888;BME280;3989;48.810;9.208;2023-04-24T11:35:35;98179.94;;;14.52;48.20
7888;BME280;3989;48.810;9.208;2023-04-24T11:38:03;98179.78;;;14.71;48.42
7888;BME280;3989;48.810;9.208;2023-04-24T11:40:30;98190.69;;;15.01;47.61
7888;BME280;3989;48.810;9.208;2023-04-24T11:42:59;98186.00;;;15.15;47.14
7888;BME280;3989;48.810;9.208;2023-04-24T11:45:27;98109.59;;;14.43;47.54
7888;BME280;3989;48.810;9.208;2023-04-24T11:47:53;98186.19;;;14.46;48.17
7888;BME280;3989;48.810;9.208;2023-04-24T11:50:24;98161.56;;;13.80;49.49
7888;BME280;3989;48.810;9.208;2023-04-24T11:52:52;98168.69;;;13.54;50.83
7888;BME280;3989;48.810;9.208;2023-04-24T11:55:26;98207.63;;;13.70;53.45
7888;BME280;3989;48.810;9.208;2023-04-24T11:57:54;98209.59;;;13.43;56.88
7888;BME280;3989;48.810;9.208;2023-04-24T12:00:23;98143.28;;;13.12;58.08
7888;BME280;3989;48.810;9.208;2023-04-24T12:02:51;98190.44;;;13.84;54.51
7888;BME280;3989;48.810;9.208;2023-04-24T12:05:22;98193.38;;;14.52;52.02
7888;BME280;3989;48.810;9.208;2023-04-24T12:07:49;98069.16;;;13.82;50.42
7888;BME280;3989;48.810;9.208;2023-04-24T12:10:20;98197.63;;;15.09;49.41
7888;BME280;3989;48.810;9.208;2023-04-24T12:12:47;98205.69;;;14.84;48.84
7888;BME280;3989;48.810;9.208;2023-04-24T12:15:16;98206.75;;;14.58;49.65
7888;BME280;3989;48.810;9.208;2023-04-24T12:17:43;98185.81;;;14.04;50.82
7888;BME280;3989;48.810;9.208;2023-04-24T12:20:10;98220.09;;;13.96;51.58
7888;BME280;3989;48.810;9.208;2023-04-24T12:22:46;98213.59;;;13.72;52.14
7888;BME280;3989;48.810;9.208;2023-04-24T12:25:14;98208.28;;;13.59;53.40
7888;BME280;3989;48.810;9.208;2023-04-24T12:27:41;98197.38;;;13.47;54.09
7888;BME280;3989;48.810;9.208;2023-04-24T12:30:11;98218.88;;;13.92;54.25
7888;BME280;3989;48.810;9.208;2023-04-24T12:32:41;98222.94;;;14.07;51.68
7888;BME280;3989;48.810;9.208;2023-04-24T12:35:08;98222.78;;;13.96;51.79
7888;BME280;3989;48.810;9.208;2023-04-24T12:37:35;98220.81;;;13.78;52.31
7888;BME280;3989;48.810;9.208;2023-04-24T12:40:05;98171.91;;;13.19;52.75
7888;BME280;3989;48.810;9.208;2023-04-24T12:42:33;98224.84;;;13.36;53.24
7888;BME280;3989;48.810;9.208;2023-04-24T12:45:02;98133.00;;;12.90;52.77
7888;BME280;3989;48.810;9.208;2023-04-24T12:47:29;98224.69;;;13.89;51.95
7888;BME280;3989;48.810;9.208;2023-04-24T12:49:56;98217.22;;;13.97;50.67
7888;BME280;3989;48.810;9.208;2023-04-24T12:52:24;98209.66;;;13.81;51.20
7888;BME280;3989;48.810;9.208;2023-04-24T12:54:53;98220.88;;;13.58;51.90
7888;BME280;3989;48.810;9.208;2023-04-24T12:57:23;98196.00;;;13.25;52.66
7888;BME280;3989;48.810;9.208;2023-04-24T12:59:50;98187.38;;;12.90;53.82
7888;BME280;3989;48.810;9.208;2023-04-24T13:02:16;98227.38;;;12.72;61.84
7888;BME280;3989;48.810;9.208;2023-04-24T13:04:44;98256.84;;;11.57;82.51
7888;BME280;3989;48.810;9.208;2023-04-24T13:07:11;98263.75;;;10.62;100.00
7888;BME280;3989;48.810;9.208;2023-04-24T13:09:39;98258.34;;;10.34;100.00
7888;BME280;3989;48.810;9.208;2023-04-24T13:12:06;98248.81;;;10.25;100.00
7888;BME280;3989;48.810;9.208;2023-04-24T13:14:34;98246.63;;;10.50;100.00
7888;BME280;3989;48.810;9.208;2023-04-24T13:17:01;98065.41;;;9.36;100.00
7888;BME280;3989;48.810;9.208;2023-04-24T13:19:28;98224.28;;;10.58;100.00